sensor_id;sensor_type;location;lat;lon;timestamp;pressure;altitude;pressure_sealevel;temperature;humidity
77897;BME280;67092;64.282;21.056;2023-04-24T00:00:41;100307.08;;;20.97;23.19
77897;BME280;67092;64.282;21.056;2023-04-24T00:03:07;100308.52;;;20.82;23.31
77897;BME280;67092;64.282;21.056;2023-04-24T00:05:32;100304.20;;;20.75;23.37
77897;BME280;67092;64.282;21.056;2023-04-24T00:07:58;100304.10;;;20.72;23.40
77897;BME280;67092;64.282;21.056;2023-04-24T00:10:24;100302.44;;;20.50;23.45
77897;BME280;67092;64.282;21.056;2023-04-24T00:12:49;100293.90;;;20.26;23.66
77897;BME280;67092;64.282;21.056;2023-04-24T00:15:15;100295.81;;;20.89;23.21
77897;BME280;67092;64.282;21.056;2023-04-24T00:17:40;100297.79;;;20.77;23.15
77897;BME280;67092;64.282;21.056;2023-04-24T00:20:07;100302.31;;;20.85;23.07
77897;BME280;67092;64.282;21.056;2023-04-24T00:22:32;100300.86;;;20.63;23.46
77897;BME280;67092;64.282;21.056;2023-04-24T00:24:57;100299.07;;;20.50;23.37
77897;BME280;67092;64.282;21.056;2023-04-24T00:27:23;100298.02;;;20.12;23.92
77897;BME280;67092;64.282;21.056;2023-04-24T00:29:49;100291.06;;;20.33;23.48
77897;BME280;67092;64.282;21.056;2023-04-24T00:32:14;100281.04;;;20.10;23.70
77897;BME280;67092;64.282;21.056;2023-04-24T00:34:40;100270.53;;;20.61;23.51
77897;BME280;67092;64.282;21.056;2023-04-24T00:37:05;100265.61;;;20.32;23.75
77897;BME280;67092;64.282;21.056;2023-04-24T00:39:31;100270.05;;;20.53;23.33
77897;BME280;67092;64.282;21.056;2023-04-24T00:41:57;100272.93;;;20.66;23.43
77897;BME280;67092;64.282;21.056;2023-04-24T00:44:23;100267.55;;;19.98;23.83
77897;BME280;67092;64.282;21.056;2023-04-24T00:46:48;100265.20;;;20.46;23.42
77897;BME280;67092;64.282;21.056;2023-04-24T00:49:14;100263.28;;;20.12;23.90
77897;BME280;67092;64.282;21.056;2023-04-24T00:51:39;100260.63;;;20.68;23.80
77897;BME280;67092;64.282;21.056;2023-04-24T00:54:05;100249.20;;;20.49;23.64
77897;BME280;67092;64.282;21.056;2023-04-24T00:56:30;100241.33;;;20.32;23.73
77897;BME280;67092;64.282;21.056;2023-04-24T00:58:56;100239.06;;;20.56;23.81
77897;BME280;67092;64.282;21.056;2023-04-24T01:01:22;100236.67;;;20.61;23.53
77897;BME280;67092;64.282;21.056;2023-04-24T01:03:49;100228.26;;;20.55;23.56
77897;BME280;67092;64.282;21.056;2023-04-24T01:06:14;100221.32;;;20.10;23.53
77897;BME280;67092;64.282;21.056;2023-04-24T01:08:39;100221.10;;;20.67;23.26
77897;BME280;67092;64.282;21.056;2023-04-24T01:11:04;100221.51;;;20.54;23.29
77897;BME280;67092;64.282;21.056;2023-04-24T01:13:31;100216.81;;;20.76;23.39
77897;BME280;67092;64.282;21.056;2023-04-24T01:15:55;100218.18;;;20.93;23.20
77897;BME280;67092;64.282;21.056;2023-04-24T01:18:21;100223.81;;;20.88;23.27
77897;BME280;67092;64.282;21.056;2023-04-24T01:20:47;100223.66;;;21.05;23.33
77897;BME280;67092;64.282;21.056;2023-04-24T01:23:12;100221.54;;;20.68;23.17
77897;BME280;67092;64.282;21.056;2023-04-24T01:25:38;100219.82;;;20.83;23.32
77897;BME280;67092;64.282;21.056;2023-04-24T01:28:04;100222.09;;;20.42;23.65
77897;BME280;67092;64.282;21.056;2023-04-24T01:30:31;100219.77;;;20.96;23.15
77897;BME280;67092;64.282;21.056;2023-04-24T01:32:55;100220.11;;;20.66;23.39
77897;BME280;67092;64.282;21.056;2023-04-24T01:35:21;100213.88;;;20.59;23.48
77897;BME280;67092;64.282;21.056;2023-04-24T01:37:46;100213.58;;;20.44;23.42
77897;BME280;67092;64.282;21.056;2023-04-24T01:40:12;100215.61;;;20.35;23.75
77897;BME280;67092;64.282;21.056;2023-04-24T01:42:38;100209.23;;;20.28;23.55
77897;BME280;67092;64.282;21.056;2023-04-24T01:45:04;100202.80;;;20.46;23.43
77897;BME280;67092;64.282;21.056;2023-04-24T01:47:30;100198.14;;;20.34;23.71
77897;BME280;67092;64.282;21.056;2023-04-24T01:49:54;100193.55;;;20.61;23.51
77897;BME280;67092;64.282;21.056;2023-04-24T01:52:20;100194.20;;;21.07;23.28
77897;BME280;67092;64.282;21.056;2023-04-24T01:54:45;100203.21;;;20.71;23.67
77897;BME280;67092;64.282;21.056;2023-04-24T01:57:11;100211.36;;;20.22;23.52
77897;BME280;67092;64.282;21.056;2023-04-24T01:59:37;100209.56;;;20.39;23.65
77897;BME280;67092;64.282;21.056;2023-04-24T02:02:02;100212.13;;;20.55;23.53
77897;BME280;67092;64.282;21.056;2023-04-24T02:04:28;100210.19;;;20.76;23.09
77897;BME280;67092;64.282;21.056;2023-04-24T02:06:53;100214.59;;;20.89;23.14
77897;BME280;67092;64.282;21.056;2023-04-24T02:09:19;100213.73;;;20.70;23.40
77897;BME280;67092;64.282;21.056;2023-04-24T02:11:45;100210.96;;;20.63;23.35
77897;BME280;67092;64.282;21.056;2023-04-24T02:14:10;100210.78;;;20.61;23.44
77897;BME280;67092;64.282;21.056;2023-04-24T02:16:36;100203.83;;;20.69;23.36
77897;BME280;67092;64.282;21.056;2023-04-24T02:19:02;100201.60;;;20.63;23.49
77897;BME280;67092;64.282;21.056;2023-04-24T02:21:27;100201.41;;;20.59;23.48
77897;BME280;67092;64.282;21.056;2023-04-24T02:23:53;100198.05;;;20.76;23.29
77897;BME280;67092;64.282;21.056;2023-04-24T02:26:18;100200.64;;;20.54;23.29
77897;BME280;67092;64.282;21.056;2023-04-24T02:28:44;100201.65;;;20.14;23.83
77897;BME280;67092;64.282;21.056;2023-04-24T02:31:10;100198.88;;;20.36;23.67
77897;BME280;67092;64.282;21.056;2023-04-24T02:33:35;100201.47;;;19.82;23.94
77897;BME280;67092;64.282;21.056;2023-04-24T02:36:01;100188.48;;;20.77;23.55
77897;BME280;67092;64.282;21.056;2023-04-24T02:38:27;100187.96;;;20.38;23.69
77897;BME280;67092;64.282;21.056;2023-04-24T02:40:52;100186.48;;;20.56;23.51
77897;BME280;67092;64.282;21.056;2023-04-24T02:43:18;100189.44;;;20.53;23.51
77897;BME280;67092;64.282;21.056;2023-04-24T02:45:43;100192.88;;;20.74;23.56
77897;BME280;67092;64.282;21.056;2023-04-24T02:48:09;100191.94;;;20.39;23.65
77897;BME280;67092;64.282;21.056;2023-04-24T02:50:35;100188.38;;;20.23;23.84
77897;BME280;67092;64.282;21.056;2023-04-24T02:53:00;100194.67;;;20.83;23.43
77897;BME280;67092;64.282;21.056;2023-04-24T02:55:26;100199.59;;;20.07;23.98
77897;BME280;67092;64.282;21.056;2023-04-24T02:57:51;100197.39;;;20.40;23.70
77897;BME280;67092;64.282;21.056;2023-04-24T03:00:17;100188.64;;;20.27;23.73
77897;BME280;67092;64.282;21.056;2023-04-24T03:02:43;100182.26;;;20.50;23.50
77897;BME280;67092;64.282;21.056;2023-04-24T03:05:08;100187.30;;;20.42;23.58
77897;BME280;67092;64.282;21.056;2023-04-24T03:07:34;100182.92;;;20.21;23.81
77897;BME280;67092;64.282;21.056;2023-04-24T03:09:59;100179.63;;;20.36;23.61
77897;BME280;67092;64.282;21.056;2023-04-24T03:12:25;100177.03;;;20.55;23.66
77897;BME280;67092;64.282;21.056;2023-04-24T03:14:51;100183.07;;;20.77;23.52
77897;BME280;67092;64.282;21.056;2023-04-24T03:17:16;100184.10;;;20.22;23.75
77897;BME280;67092;64.282;21.056;2023-04-24T03:19:42;100182.68;;;20.19;23.78
77897;BME280;67092;64.282;21.056;2023-04-24T03:22:07;100182.43;;;20.60;23.67
77897;BME280;67092;64.282;21.056;2023-04-24T03:24:33;100180.10;;;20.37;23.61
77897;BME280;67092;64.282;21.056;2023-04-24T03:26:59;100178.01;;;20.35;23.54
77897;BME280;67092;64.282;21.056;2023-04-24T03:29:24;100177.29;;;20.02;23.88
77897;BME280;67092;64.282;21.056;2023-04-24T03:31:50;100171.80;;;20.19;23.67
77897;BME280;67092;64.282;21.056;2023-04-24T03:34:16;100171.41;;;20.71;23.26
77897;BME280;67092;64.282;21.056;2023-04-24T03:36:41;100174.26;;;20.14;23.73
77897;BME280;67092;64.282;21.056;2023-04-24T03:39:07;100180.99;;;20.13;23.73
77897;BME280;67092;64.282;21.056;2023-04-24T03:41:32;100181.75;;;20.30;23.62
77897;BME280;67092;64.282;21.056;2023-04-24T03:43:58;100186.85;;;19.98;23.89
77897;BME280;67092;64.282;21.056;2023-04-24T03:46:24;100183.50;;;20.00;24.14
77897;BME280;67092;64.282;21.056;2023-04-24T03:48:49;100185.53;;;20.02;23.81
77897;BME280;67092;64.282;21.056;2023-04-24T03:51:15;100183.02;;;20.69;23.27
77897;BME280;67092;64.282;21.056;2023-04-24T03:53:41;100181.58;;;20.48;23.70
77897;BME280;67092;64.282;21.056;2023-04-24T03:56:07;100182.44;;;20.09;23.54
77897;BME280;67092;64.282;21.056;2023-04-24T03:58:32;100176.34;;;20.13;23.76
77897;BME280;67092;64.282;21.056;2023-04-24T04:00:57;100177.44;;;20.24;23.43
77897;BME280;67092;64.282;21.056;2023-04-24T04:03:23;100179.39;;;20.49;23.43
77897;BME280;67092;64.282;21.056;2023-04-24T04:05:49;100176.57;;;20.48;23.64
77897;BME280;67092;64.282;21.056;2023-04-24T04:08:14;100180.81;;;20.12;23.74
77897;BME280;67092;64.282;21.056;2023-04-24T04:10:40;100181.03;;;20.26;23.44
77897;BME280;67092;64.282;21.056;2023-04-24T04:13:06;100179.58;;;20.07;23.97
77897;BME280;67092;64.282;21.056;2023-04-24T04:15:31;100176.67;;;20.66;23.43
77897;BME280;67092;64.282;21.056;2023-04-24T04:17:57;100167.98;;;20.59;23.76
77897;BME280;67092;64.282;21.056;2023-04-24T04:20:22;100168.09;;;20.79;23.59
77897;BME280;67092;64.282;21.056;2023-04-24T04:22:48;100169.28;;;20.80;23.39
77897;BME280;67092;64.282;21.056;2023-04-24T04:25:14;100170.41;;;20.34;23.82
77897;BME280;67092;64.282;21.056;2023-04-24T04:27:39;100165.87;;;20.47;23.87
77897;BME280;67092;64.282;21.056;2023-04-24T04:30:06;100174.47;;;20.63;23.50
77897;BME280;67092;64.282;21.056;2023-04-24T04:32:30;100169.54;;;20.16;23.67
77897;BME280;67092;64.282;21.056;2023-04-24T04:34:56;100166.35;;;20.61;23.51
77897;BME280;67092;64.282;21.056;2023-04-24T04:37:21;100169.77;;;20.45;23.73
77897;BME280;67092;64.282;21.056;2023-04-24T04:39:47;100170.72;;;20.52;23.62
77897;BME280;67092;64.282;21.056;2023-04-24T04:42:12;100171.74;;;20.83;23.55
77897;BME280;67092;64.282;21.056;2023-04-24T04:44:38;100169.12;;;20.61;23.59
77897;BME280;67092;64.282;21.056;2023-04-24T04:47:04;100181.33;;;20.78;23.66
77897;BME280;67092;64.282;21.056;2023-04-24T04:49:29;100175.65;;;20.55;23.64
77897;BME280;67092;64.282;21.056;2023-04-24T04:51:55;100184.61;;;20.51;23.64
77897;BME280;67092;64.282;21.056;2023-04-24T04:54:20;100178.10;;;20.48;23.69
77897;BME280;67092;64.282;21.056;2023-04-24T04:56:46;100175.40;;;20.45;23.65
77897;BME280;67092;64.282;21.056;2023-04-24T04:59:12;100178.72;;;20.59;23.36
77897;BME280;67092;64.282;21.056;2023-04-24T05:01:37;100182.63;;;20.76;23.66
77897;BME280;67092;64.282;21.056;2023-04-24T05:04:03;100178.79;;;20.71;23.57
77897;BME280;67092;64.282;21.056;2023-04-24T05:06:29;100179.82;;;20.76;23.48
77897;BME280;67092;64.282;21.056;2023-04-24T05:08:54;100174.26;;;20.51;23.63
77897;BME280;67092;64.282;21.056;2023-04-24T05:11:20;100175.51;;;20.26;23.69
77897;BME280;67092;64.282;21.056;2023-04-24T05:13:45;100179.56;;;20.63;23.54
77897;BME280;67092;64.282;21.056;2023-04-24T05:16:11;100186.68;;;20.50;23.67
77897;BME280;67092;64.282;21.056;2023-04-24T05:18:37;100192.63;;;20.78;23.18
77897;BME280;67092;64.282;21.056;2023-04-24T05:21:02;100190.42;;;20.51;23.64
77897;BME280;67092;64.282;21.056;2023-04-24T05:23:28;100193.63;;;20.66;23.52
77897;BME280;67092;64.282;21.056;2023-04-24T05:25:54;100189.85;;;20.52;23.70
77897;BME280;67092;64.282;21.056;2023-04-24T05:28:19;100200.60;;;20.57;23.70
77897;BME280;67092;64.282;21.056;2023-04-24T05:30:45;100204.20;;;21.44;22.72
77897;BME280;67092;64.282;21.056;2023-04-24T05:33:11;100201.82;;;20.91;23.36
77897;BME280;67092;64.282;21.056;2023-04-24T05:35:36;100213.78;;;20.23;23.85
77897;BME280;67092;64.282;21.056;2023-04-24T05:38:02;100206.49;;;20.72;23.33
77897;BME280;67092;64.282;21.056;2023-04-24T05:40:27;100211.34;;;20.76;23.03
77897;BME280;67092;64.282;21.056;2023-04-24T05:42:53;100214.05;;;20.89;23.28
77897;BME280;67092;64.282;21.056;2023-04-24T05:45:19;100213.54;;;20.87;23.09
77897;BME280;67092;64.282;21.056;2023-04-24T05:47:44;100211.18;;;20.85;23.07
77897;BME280;67092;64.282;21.056;2023-04-24T05:50:10;100217.56;;;20.40;23.42
77897;BME280;67092;64.282;21.056;2023-04-24T05:52:36;100213.74;;;20.20;23.55
77897;BME280;67092;64.282;21.056;2023-04-24T05:55:01;100204.51;;;20.64;23.17
77897;BME280;67092;64.282;21.056;2023-04-24T05:57:27;100200.13;;;20.52;23.21
77897;BME280;67092;64.282;21.056;2023-04-24T05:59:53;100189.42;;;20.63;23.07
77897;BME280;67092;64.282;21.056;2023-04-24T06:02:18;100183.88;;;20.87;23.03
77897;BME280;67092;64.282;21.056;2023-04-24T06:04:45;100182.94;;;20.40;23.22
77897;BME280;67092;64.282;21.056;2023-04-24T06:07:10;100186.01;;;20.63;23.21
77897;BME280;67092;64.282;21.056;2023-04-24T06:09:35;100183.56;;;20.03;23.26
77897;BME280;67092;64.282;21.056;2023-04-24T06:12:01;100182.65;;;20.82;22.99
77897;BME280;67092;64.282;21.056;2023-04-24T06:14:26;100182.84;;;20.78;22.99
77897;BME280;67092;64.282;21.056;2023-04-24T06:16:51;100184.67;;;20.44;23.09
77897;BME280;67092;64.282;21.056;2023-04-24T06:19:17;100190.22;;;20.32;23.12
77897;BME280;67092;64.282;21.056;2023-04-24T06:21:43;100202.30;;;20.60;22.88
77897;BME280;67092;64.282;21.056;2023-04-24T06:24:08;100212.40;;;20.35;23.06
77897;BME280;67092;64.282;21.056;2023-04-24T06:26:34;100216.70;;;20.12;23.23
77897;BME280;67092;64.282;21.056;2023-04-24T06:29:00;100222.64;;;20.42;23.19
77897;BME280;67092;64.282;21.056;2023-04-24T06:31:25;100226.20;;;20.51;22.83
77897;BME280;67092;64.282;21.056;2023-04-24T06:33:51;100232.19;;;20.23;23.11
77897;BME280;67092;64.282;21.056;2023-04-24T06:36:17;100241.98;;;20.28;23.04
77897;BME280;67092;64.282;21.056;2023-04-24T06:38:42;100248.04;;;20.26;23.00
77897;BME280;67092;64.282;21.056;2023-04-24T06:41:09;100253.53;;;20.35;22.87
77897;BME280;67092;64.282;21.056;2023-04-24T06:43:34;100259.96;;;20.58;22.88
77897;BME280;67092;64.282;21.056;2023-04-24T06:45:59;100261.57;;;20.33;22.87
77897;BME280;67092;64.282;21.056;2023-04-24T06:48:25;100268.94;;;20.35;23.02
77897;BME280;67092;64.282;21.056;2023-04-24T06:50:50;100271.71;;;20.61;22.54
77897;BME280;67092;64.282;21.056;2023-04-24T06:53:16;100282.36;;;20.24;22.80
77897;BME280;67092;64.282;21.056;2023-04-24T06:55:42;100289.70;;;20.60;22.72
77897;BME280;67092;64.282;21.056;2023-04-24T06:58:07;100292.12;;;20.25;22.78
77897;BME280;67092;64.282;21.056;2023-04-24T07:00:33;100298.93;;;20.89;22.42
77897;BME280;67092;64.282;21.056;2023-04-24T07:02:58;100311.79;;;20.75;22.29
77897;BME280;67092;64.282;21.056;2023-04-24T07:05:24;100313.73;;;20.28;22.46
77897;BME280;67092;64.282;21.056;2023-04-24T07:07:50;100319.79;;;20.30;22.66
77897;BME280;67092;64.282;21.056;2023-04-24T07:10:16;100322.27;;;20.05;22.87
77897;BME280;67092;64.282;21.056;2023-04-24T07:12:41;100324.26;;;19.79;22.86
77897;BME280;67092;64.282;21.056;2023-04-24T07:15:08;100329.17;;;20.16;22.72
77897;BME280;67092;64.282;21.056;2023-04-24T07:17:32;100321.87;;;20.32;22.55
77897;BME280;67092;64.282;21.056;2023-04-24T07:19:58;100325.99;;;20.55;22.56
77897;BME280;67092;64.282;21.056;2023-04-24T07:22:24;100324.59;;;20.56;22.24
77897;BME280;67092;64.282;21.056;2023-04-24T07:24:49;100329.44;;;20.46;22.52
77897;BME280;67092;64.282;21.056;2023-04-24T07:27:15;100333.86;;;20.48;22.49
77897;BME280;67092;64.282;21.056;2023-04-24T07:29:40;100343.37;;;20.07;22.65
77897;BME280;67092;64.282;21.056;2023-04-24T07:32:07;100354.58;;;20.00;22.45
77897;BME280;67092;64.282;21.056;2023-04-24T07:34:32;100356.12;;;20.49;22.48
77897;BME280;67092;64.282;21.056;2023-04-24T07:36:57;100351.18;;;20.37;22.53
77897;BME280;67092;64.282;21.056;2023-04-24T07:39:23;100357.73;;;20.29;22.55
77897;BME280;67092;64.282;21.056;2023-04-24T07:41:49;100357.77;;;20.28;22.33
77897;BME280;67092;64.282;21.056;2023-04-24T07:44:14;100362.30;;;20.26;22.36
77897;BME280;67092;64.282;21.056;2023-04-24T07:46:40;100364.98;;;20.44;22.18
77897;BME280;67092;64.282;21.056;2023-04-24T07:49:06;100367.85;;;20.49;22.09
77897;BME280;67092;64.282;21.056;2023-04-24T07:51:31;100376.51;;;20.59;22.02
77897;BME280;67092;64.282;21.056;2023-04-24T07:53:57;100381.03;;;20.32;22.20
77897;BME280;67092;64.282;21.056;2023-04-24T07:56:22;100382.15;;;20.32;22.40
77897;BME280;67092;64.282;21.056;2023-04-24T07:58:48;100385.97;;;20.43;22.28
77897;BME280;67092;64.282;21.056;2023-04-24T08:01:14;100389.07;;;20.55;21.98
77897;BME280;67092;64.282;21.056;2023-04-24T08:03:39;100391.89;;;20.60;21.91
77897;BME280;67092;64.282;21.056;2023-04-24T08:06:06;100400.20;;;20.27;22.20
77897;BME280;67092;64.282;21.056;2023-04-24T08:08:31;100413.13;;;20.68;21.81
77897;BME280;67092;64.282;21.056;2023-04-24T08:10:56;100416.44;;;20.13;22.25
77897;BME280;67092;64.282;21.056;2023-04-24T08:13:22;100419.77;;;20.37;22.07
77897;BME280;67092;64.282;21.056;2023-04-24T08:15:48;100413.83;;;20.34;22.26
77897;BME280;67092;64.282;21.056;2023-04-24T08:18:13;100416.86;;;20.42;22.18
77897;BME280;67092;64.282;21.056;2023-04-24T08:20:39;100421.07;;;20.38;22.22
77897;BME280;67092;64.282;21.056;2023-04-24T08:23:05;100433.26;;;20.55;21.83
77897;BME280;67092;64.282;21.056;2023-04-24T08:25:31;100437.14;;;20.65;21.90
77897;BME280;67092;64.282;21.056;2023-04-24T08:27:56;100447.18;;;20.66;21.70
77897;BME280;67092;64.282;21.056;2023-04-24T08:30:22;100452.43;;;20.52;21.79
77897;BME280;67092;64.282;21.056;2023-04-24T08:32:47;100444.53;;;20.72;21.63
77897;BME280;67092;64.282;21.056;2023-04-24T08:35:13;100442.36;;;20.94;21.57
77897;BME280;67092;64.282;21.056;2023-04-24T08:37:38;100444.26;;;20.33;21.87
77897;BME280;67092;64.282;21.056;2023-04-24T08:40:10;100440.37;;;20.37;22.00
77897;BME280;67092;64.282;21.056;2023-04-24T08:42:30;100446.21;;;20.73;21.70
77897;BME280;67092;64.282;21.056;2023-04-24T08:44:55;100443.30;;;20.09;22.01
77897;BME280;67092;64.282;21.056;2023-04-24T08:47:22;100443.94;;;20.56;21.84
77897;BME280;67092;64.282;21.056;2023-04-24T08:49:48;100441.06;;;20.60;21.59
77897;BME280;67092;64.282;21.056;2023-04-24T08:52:12;100445.02;;;20.55;21.60
77897;BME280;67092;64.282;21.056;2023-04-24T08:54:38;100441.42;;;20.47;21.64
77897;BME280;67092;64.282;21.056;2023-04-24T08:57:06;100452.88;;;20.81;21.57
77897;BME280;67092;64.282;21.056;2023-04-24T08:59:30;100444.44;;;20.80;21.35
77897;BME280;67092;64.282;21.056;2023-04-24T09:01:55;100442.58;;;20.90;21.23
77897;BME280;67092;64.282;21.056;2023-04-24T09:04:20;100446.99;;;20.68;21.37
77897;BME280;67092;64.282;21.056;2023-04-24T09:06:46;100451.45;;;20.35;21.67
77897;BME280;67092;64.282;21.056;2023-04-24T09:09:12;100455.82;;;20.56;21.63
77897;BME280;67092;64.282;21.056;2023-04-24T09:11:37;100465.23;;;20.62;21.65
77897;BME280;67092;64.282;21.056;2023-04-24T09:14:04;100467.50;;;20.59;21.62
77897;BME280;67092;64.282;21.056;2023-04-24T09:16:28;100467.61;;;20.64;21.42
77897;BME280;67092;64.282;21.056;2023-04-24T09:18:55;100482.57;;;20.35;21.66
77897;BME280;67092;64.282;21.056;2023-04-24T09:21:21;100479.99;;;20.44;21.61
77897;BME280;67092;64.282;21.056;2023-04-24T09:23:45;100486.49;;;20.50;21.51
77897;BME280;67092;64.282;21.056;2023-04-24T09:26:11;100495.04;;;20.86;21.40
77897;BME280;67092;64.282;21.056;2023-04-24T09:28:38;100500.36;;;20.40;21.63
77897;BME280;67092;64.282;21.056;2023-04-24T09:31:04;100502.02;;;20.29;21.91
77897;BME280;67092;64.282;21.056;2023-04-24T09:33:28;100495.44;;;20.32;21.87
77897;BME280;67092;64.282;21.056;2023-04-24T09:35:53;100497.27;;;20.42;21.71
77897;BME280;67092;64.282;21.056;2023-04-24T09:40:45;100514.65;;;20.41;21.52
77897;BME280;67092;64.282;21.056;2023-04-24T09:43:11;100502.12;;;20.56;21.39
77897;BME280;67092;64.282;21.056;2023-04-24T09:45:37;100501.96;;;20.63;21.51
77897;BME280;67092;64.282;21.056;2023-04-24T09:48:02;100501.13;;;20.49;21.39
77897;BME280;67092;64.282;21.056;2023-04-24T09:50:30;100508.48;;;20.17;21.61
77897;BME280;67092;64.282;21.056;2023-04-24T09:52:58;100513.16;;;20.42;21.64
77897;BME280;67092;64.282;21.056;2023-04-24T09:55:20;100510.90;;;20.46;21.58
77897;BME280;67092;64.282;21.056;2023-04-24T09:57:50;100506.54;;;20.64;21.46
77897;BME280;67092;64.282;21.056;2023-04-24T10:00:11;100510.02;;;20.62;21.39
77897;BME280;67092;64.282;21.056;2023-04-24T10:02:35;100515.70;;;20.44;21.55
77897;BME280;67092;64.282;21.056;2023-04-24T10:05:01;100514.07;;;20.81;21.04
77897;BME280;67092;64.282;21.056;2023-04-24T10:07:27;100517.68;;;19.97;21.69
77897;BME280;67092;64.282;21.056;2023-04-24T10:09:52;100517.39;;;20.54;21.23
77897;BME280;67092;64.282;21.056;2023-04-24T10:12:18;100521.34;;;20.10;21.57
77897;BME280;67092;64.282;21.056;2023-04-24T10:14:45;100519.99;;;20.16;21.74
77897;BME280;67092;64.282;21.056;2023-04-24T10:17:10;100525.64;;;20.26;21.66
77897;BME280;67092;64.282;21.056;2023-04-24T10:19:35;100528.19;;;20.38;21.34
77897;BME280;67092;64.282;21.056;2023-04-24T10:22:01;100524.51;;;20.25;21.39
77897;BME280;67092;64.282;21.056;2023-04-24T10:24:26;100519.05;;;20.29;21.38
77897;BME280;67092;64.282;21.056;2023-04-24T10:26:52;100519.96;;;20.17;21.48
77897;BME280;67092;64.282;21.056;2023-04-24T10:29:18;100518.50;;;20.59;21.26
77897;BME280;67092;64.282;21.056;2023-04-24T10:31:44;100517.62;;;20.49;21.40
77897;BME280;67092;64.282;21.056;2023-04-24T10:34:10;100519.08;;;20.16;21.45
77897;BME280;67092;64.282;21.056;2023-04-24T10:36:36;100526.67;;;20.21;21.39
77897;BME280;67092;64.282;21.056;2023-04-24T10:39:02;100526.41;;;20.55;21.33
77897;BME280;67092;64.282;21.056;2023-04-24T10:41:26;100530.11;;;20.37;21.06
77897;BME280;67092;64.282;21.056;2023-04-24T10:44:04;100537.12;;;20.48;21.14
77897;BME280;67092;64.282;21.056;2023-04-24T10:46:20;100532.18;;;20.77;20.91
77897;BME280;67092;64.282;21.056;2023-04-24T10:48:43;100530.94;;;20.69;20.96
77897;BME280;67092;64.282;21.056;2023-04-24T10:51:11;100538.10;;;20.37;21.43
77897;BME280;67092;64.282;21.056;2023-04-24T10:53:35;100546.19;;;19.87;21.62
77897;BME280;67092;64.282;21.056;2023-04-24T10:56:03;100546.08;;;20.92;20.96
77897;BME280;67092;64.282;21.056;2023-04-24T10:58:36;100541.59;;;20.53;21.27
77897;BME280;67092;64.282;21.056;2023-04-24T11:00:57;100556.59;;;20.51;21.27
77897;BME280;67092;64.282;21.056;2023-04-24T11:03:24;100553.14;;;20.52;21.21
77897;BME280;67092;64.282;21.056;2023-04-24T11:05:53;100559.07;;;20.06;21.41
77897;BME280;67092;64.282;21.056;2023-04-24T11:08:12;100563.16;;;20.47;21.08
77897;BME280;67092;64.282;21.056;2023-04-24T11:10:33;100572.11;;;20.84;20.94
77897;BME280;67092;64.282;21.056;2023-04-24T11:12:59;100576.65;;;20.29;21.17
77897;BME280;67092;64.282;21.056;2023-04-24T11:15:24;100586.46;;;20.17;21.25
77897;BME280;67092;64.282;21.056;2023-04-24T11:17:55;100586.52;;;20.17;21.29
77897;BME280;67092;64.282;21.056;2023-04-24T11:20:17;100584.82;;;19.86;21.51
77897;BME280;67092;64.282;21.056;2023-04-24T11:22:41;100591.43;;;20.32;21.32
77897;BME280;67092;64.282;21.056;2023-04-24T11:25:08;100589.97;;;20.17;21.25
77897;BME280;67092;64.282;21.056;2023-04-24T11:27:38;100595.41;;;19.75;21.58
77897;BME280;67092;64.282;21.056;2023-04-24T11:30:00;100599.69;;;20.59;21.10
77897;BME280;67092;64.282;21.056;2023-04-24T11:32:26;100606.87;;;20.32;21.06
77897;BME280;67092;64.282;21.056;2023-04-24T11:34:52;100610.52;;;20.29;21.29
77897;BME280;67092;64.282;21.056;2023-04-24T11:37:15;100614.52;;;20.45;21.15
77897;BME280;67092;64.282;21.056;2023-04-24T11:39:41;100610.50;;;20.41;21.18
77897;BME280;67092;64.282;21.056;2023-04-24T11:42:07;100613.86;;;20.51;21.05
77897;BME280;67092;64.282;21.056;2023-04-24T11:44:34;100633.67;;;20.15;21.36
77897;BME280;67092;64.282;21.056;2023-04-24T11:46:58;100639.32;;;20.38;21.16
77897;BME280;67092;64.282;21.056;2023-04-24T11:49:24;100640.34;;;20.18;21.33
77897;BME280;67092;64.282;21.056;2023-04-24T11:51:49;100644.77;;;20.71;21.06
77897;BME280;67092;64.282;21.056;2023-04-24T11:54:14;100651.61;;;19.99;21.38
77897;BME280;67092;64.282;21.056;2023-04-24T11:56:44;100655.00;;;20.43;21.08
77897;BME280;67092;64.282;21.056;2023-04-24T11:59:06;100658.66;;;19.71;21.45
77897;BME280;67092;64.282;21.056;2023-04-24T12:03:59;100661.12;;;19.91;21.24
77897;BME280;67092;64.282;21.056;2023-04-24T12:06:23;100657.93;;;20.82;20.71
77897;BME280;67092;64.282;21.056;2023-04-24T12:08:48;100661.50;;;20.39;21.03
77897;BME280;67092;64.282;21.056;2023-04-24T12:11:16;100671.72;;;20.07;21.11
77897;BME280;67092;64.282;21.056;2023-04-24T12:13:40;100680.68;;;20.40;20.84
77897;BME280;67092;64.282;21.056;2023-04-24T12:16:05;100681.94;;;19.98;21.15
77897;BME280;67092;64.282;21.056;2023-04-24T12:18:31;100683.85;;;20.04;21.08
77897;BME280;67092;64.282;21.056;2023-04-24T12:23:33;100689.33;;;20.25;20.96
77897;BME280;67092;64.282;21.056;2023-04-24T12:25:51;100698.35;;;20.53;20.90
77897;BME280;67092;64.282;21.056;2023-04-24T12:28:13;100692.89;;;20.36;20.84
77897;BME280;67092;64.282;21.056;2023-04-24T12:30:41;100698.05;;;20.35;21.02
77897;BME280;67092;64.282;21.056;2023-04-24T12:33:05;100695.67;;;20.30;21.05
77897;BME280;67092;64.282;21.056;2023-04-24T12:35:32;100695.10;;;20.24;20.90
77897;BME280;67092;64.282;21.056;2023-04-24T12:37:56;100694.59;;;20.26;21.07